Time;durP1;ratioP1;P1;durP2;ratioP2;P2;SDS_P1;SDS_P2;PMS_P1;PMS_P2;Temp;Humidity;BMP_temperature;BMP_pressure;BME280_temperature;BME280_humidity;BME280_pressure;Samples;Min_cycle;Max_cycle;Signal;HPM_P1;HPM_P2
2024/02/21 00:01:50;;;;;;;15.38;10.07;;;;;;;-5.05;67.29;99861.41;5031517;28;20044;-59
2024/02/21 00:04:16;;;;;;;15.70;9.50;;;;;;;-5.09;67.04;99867.75;5019728;28;20041;-60
2024/02/21 00:06:42;;;;;;;14.10;10.05;;;;;;;-5.06;66.88;99862.34;5015719;28;20034;-56
2024/02/21 00:09:09;;;;;;;13.82;8.75;;;;;;;-4.99;67.21;99862.69;5011499;28;20045;-59
2024/02/21 00:11:35;;;;;;;21.75;9.65;;;;;;;-5.05;66.43;99862.22;5012451;28;20056;-58
2024/02/21 00:14:00;;;;;;;13.93;9.07;;;;;;;-5.03;66.81;99856.91;5011657;28;20046;-59
2024/02/21 00:16:26;;;;;;;12.15;8.60;;;;;;;-5.04;67.40;99861.28;5020168;28;20045;-60
2024/02/21 00:18:52;;;;;;;12.90;9.27;;;;;;;-5.06;67.01;99854.59;5044209;28;20042;-59
2024/02/21 00:21:18;;;;;;;16.88;9.25;;;;;;;-5.12;67.30;99852.50;5011594;28;20507;-59
2024/02/21 00:23:49;;;;;;;14.57;8.77;;;;;;;-5.08;66.96;99852.13;5027966;28;20042;-59
2024/02/21 00:26:15;;;;;;;13.00;8.60;;;;;;;-5.04;67.01;99850.94;5031031;28;20037;-59
2024/02/21 00:28:40;;;;;;;15.85;10.30;;;;;;;-4.98;67.55;99841.03;5032604;28;20483;-59
2024/02/21 00:31:06;;;;;;;16.63;9.63;;;;;;;-4.94;66.82;99856.19;5032546;28;20041;-60
2024/02/21 00:33:31;;;;;;;13.65;9.10;;;;;;;-4.95;67.11;99851.94;5032237;28;20205;-58
2024/02/21 00:35:57;;;;;;;14.18;9.18;;;;;;;-4.89;66.83;99843.66;5031125;28;20052;-61
2024/02/21 00:38:22;;;;;;;15.65;10.10;;;;;;;-5.00;66.32;99837.75;5047567;28;20045;-59
2024/02/21 00:40:48;;;;;;;16.38;9.60;;;;;;;-5.00;66.96;99840.34;5030704;28;20420;-62
2024/02/21 00:43:14;;;;;;;15.77;10.13;;;;;;;-4.95;67.43;99839.00;5047290;28;20045;-60
2024/02/21 00:45:39;;;;;;;16.70;9.55;;;;;;;-4.93;66.96;99828.56;5032168;28;20037;-62
2024/02/21 00:48:05;;;;;;;15.05;10.38;;;;;;;-4.96;66.64;99823.66;5031967;28;20057;-59
2024/02/21 00:50:31;;;;;;;17.83;10.10;;;;;;;-4.88;66.40;99826.38;5032178;28;20041;-62
2024/02/21 00:52:57;;;;;;;15.48;9.77;;;;;;;-4.92;66.04;99825.81;5032117;28;20122;-59
2024/02/21 00:55:23;;;;;;;17.42;10.75;;;;;;;-4.95;66.16;99814.94;5031015;28;20045;-60
2024/02/21 00:57:49;;;;;;;14.98;9.70;;;;;;;-4.97;66.10;99812.47;5013824;28;20538;-59
2024/02/21 01:00:15;;;;;;;16.20;10.82;;;;;;;-4.98;66.48;99807.44;5032022;28;20069;-62
2024/02/21 01:02:41;;;;;;;19.85;11.25;;;;;;;-5.02;66.98;99802.50;5030395;28;20068;-59
2024/02/21 01:05:07;;;;;;;17.40;11.23;;;;;;;-4.95;66.54;99807.97;5031654;28;20046;-63
2024/02/21 01:07:32;;;;;;;15.52;10.05;;;;;;;-5.07;66.56;99799.47;5031542;28;20045;-61
2024/02/21 01:09:58;;;;;;;19.90;10.85;;;;;;;-5.12;66.76;99805.97;5031519;28;20044;-62
2024/02/21 01:12:25;;;;;;;17.83;10.93;;;;;;;-5.07;67.45;99803.84;5031658;28;20075;-59
2024/02/21 01:14:50;;;;;;;18.48;10.68;;;;;;;-5.15;66.73;99791.53;5031700;28;20095;-59
2024/02/21 01:17:16;;;;;;;16.95;9.98;;;;;;;-5.14;66.89;99790.59;5031330;28;20045;-61
2024/02/21 01:19:42;;;;;;;20.23;10.20;;;;;;;-5.20;67.35;99798.88;5030253;28;20041;-63
2024/02/21 01:22:07;;;;;;;13.48;8.85;;;;;;;-5.21;67.33;99793.81;5031422;28;20075;-60
2024/02/21 01:24:33;;;;;;;16.10;10.07;;;;;;;-5.16;67.54;99795.06;5030037;28;20045;-59
2024/02/21 01:26:59;;;;;;;15.95;10.82;;;;;;;-5.15;66.50;99786.38;5046520;28;20042;-61
2024/02/21 01:29:24;;;;;;;17.65;11.18;;;;;;;-5.14;66.96;99788.03;5031682;28;20045;-61
2024/02/21 01:31:50;;;;;;;14.30;9.23;;;;;;;-5.26;66.99;99779.50;5029950;28;20183;-60
2024/02/21 01:34:16;;;;;;;16.48;10.27;;;;;;;-5.29;67.19;99778.94;5046635;28;20053;-61
2024/02/21 01:36:41;;;;;;;17.95;10.55;;;;;;;-5.26;67.26;99782.09;5031508;28;20037;-61
2024/02/21 01:39:07;;;;;;;17.90;10.68;;;;;;;-5.22;67.25;99784.44;5031508;28;20056;-61
2024/02/21 01:41:33;;;;;;;16.63;10.38;;;;;;;-5.41;67.09;99759.25;5030036;28;20034;-62
2024/02/21 01:43:59;;;;;;;18.80;11.25;;;;;;;-5.45;67.35;99776.78;5031611;28;20080;-60
2024/02/21 01:46:28;;;;;;;17.70;10.13;;;;;;;-5.37;67.17;99787.31;5031165;28;20037;-61
2024/02/21 01:48:57;;;;;;;18.95;10.80;;;;;;;-5.41;67.58;99785.09;5031472;28;20046;-60
2024/02/21 01:51:23;;;;;;;16.75;10.77;;;;;;;-5.41;67.98;99769.59;5029961;28;20041;-61
2024/02/21 01:53:50;;;;;;;20.13;11.63;;;;;;;-5.30;67.62;99778.09;5029973;28;20041;-59
2024/02/21 01:56:16;;;;;;;17.90;11.15;;;;;;;-5.20;67.01;99773.03;5030245;28;20041;-61
2024/02/21 01:58:43;;;;;;;19.42;11.30;;;;;;;-5.15;67.27;99775.22;5046238;28;20538;-60
2024/02/21 02:01:10;;;;;;;17.65;11.15;;;;;;;-5.17;67.14;99771.94;5031033;28;20037;-61
2024/02/21 02:03:35;;;;;;;16.63;11.32;;;;;;;-5.12;67.58;99774.94;5046507;28;20067;-61
2024/02/21 02:06:01;;;;;;;19.23;11.07;;;;;;;-5.08;67.54;99771.19;5032097;28;20503;-61
2024/02/21 02:08:27;;;;;;;19.65;11.23;;;;;;;-5.06;67.18;99766.69;5035346;28;20412;-60
2024/02/21 02:10:52;;;;;;;21.13;11.57;;;;;;;-5.07;66.81;99776.22;5033674;28;20133;-61
2024/02/21 02:13:18;;;;;;;18.95;11.45;;;;;;;-4.94;66.84;99770.00;5050304;28;20048;-58
2024/02/21 02:15:49;;;;;;;16.65;10.80;;;;;;;-4.93;66.75;99772.50;5034638;28;20533;-59
2024/02/21 02:18:17;;;;;;;17.30;10.48;;;;;;;-4.93;66.48;99769.91;5033754;28;20456;-60
2024/02/21 02:20:46;;;;;;;16.15;10.20;;;;;;;-4.96;66.32;99772.75;5034954;28;20422;-60
2024/02/21 02:23:21;;;;;;;18.10;11.10;;;;;;;-4.93;67.11;99775.06;5034942;28;20045;-60
2024/02/21 02:25:51;;;;;;;18.80;11.02;;;;;;;-4.98;66.66;99766.06;5049942;28;20053;-60
2024/02/21 02:28:18;;;;;;;17.52;11.35;;;;;;;-5.02;67.60;99768.91;5033581;28;20041;-61
2024/02/21 02:30:43;;;;;;;16.83;10.10;;;;;;;-5.02;66.70;99765.50;5049897;28;20053;-61
2024/02/21 02:33:09;;;;;;;21.02;11.20;;;;;;;-4.99;67.38;99767.03;5033305;28;20041;-60
2024/02/21 02:35:36;;;;;;;18.00;10.95;;;;;;;-4.94;67.24;99757.94;5033244;28;20054;-61
2024/02/21 02:38:02;;;;;;;22.65;11.93;;;;;;;-4.90;66.30;99761.06;5034623;28;20045;-59
2024/02/21 02:40:28;;;;;;;20.38;11.55;;;;;;;-4.89;67.01;99765.28;5034373;28;20041;-61
2024/02/21 02:42:56;;;;;;;18.63;11.27;;;;;;;-4.88;66.77;99762.59;5032989;28;20084;-61
2024/02/21 02:45:23;;;;;;;18.20;11.52;;;;;;;-4.83;66.76;99759.59;5034291;28;20132;-60
2024/02/21 02:47:49;;;;;;;18.00;11.18;;;;;;;-4.90;66.81;99759.31;5034058;28;20037;-60
2024/02/21 02:50:15;;;;;;;22.25;12.18;;;;;;;-4.88;67.03;99770.34;5034422;28;20053;-60
2024/02/21 02:52:41;;;;;;;21.73;11.52;;;;;;;-4.81;67.89;99760.28;5034328;28;20038;-60
2024/02/21 02:55:07;;;;;;;19.92;11.35;;;;;;;-4.80;66.86;99764.50;5032472;28;20049;-60
2024/02/21 02:57:32;;;;;;;19.35;11.88;;;;;;;-4.75;67.42;99766.72;5032588;28;20065;-60
2024/02/21 02:59:58;;;;;;;18.60;10.85;;;;;;;-4.83;67.46;99757.81;5034009;28;20045;-59
2024/02/21 03:02:24;;;;;;;16.33;10.95;;;;;;;-4.89;67.28;99763.50;5033900;28;20084;-59
2024/02/21 03:04:50;;;;;;;25.10;12.30;;;;;;;-4.77;66.99;99769.41;5049233;28;20064;-58
2024/02/21 03:07:16;;;;;;;17.98;10.93;;;;;;;-4.78;66.89;99760.03;5033846;28;20064;-61
2024/02/21 03:09:45;;;;;;;21.33;12.38;;;;;;;-4.70;67.04;99757.63;5033785;28;20106;-60
2024/02/21 03:12:11;;;;;;;20.23;11.63;;;;;;;-4.68;67.21;99770.41;5048628;28;20042;-60
2024/02/21 03:14:37;;;;;;;21.55;11.88;;;;;;;-4.63;67.14;99753.56;5033462;28;20052;-62
2024/02/21 03:17:03;;;;;;;19.00;11.40;;;;;;;-4.67;66.91;99757.34;5032874;28;20037;-60
2024/02/21 03:19:29;;;;;;;18.67;10.65;;;;;;;-4.63;67.21;99760.50;5049122;28;20503;-61
2024/02/21 03:21:55;;;;;;;19.67;11.40;;;;;;;-4.62;66.80;99752.63;5032059;28;20037;-60
2024/02/21 03:24:20;;;;;;;21.20;11.82;;;;;;;-4.64;67.04;99764.84;5033840;28;20046;-61
2024/02/21 03:26:49;;;;;;;20.15;11.43;;;;;;;-4.60;66.33;99755.88;5048136;28;20104;-60
2024/02/21 03:29:18;;;;;;;22.35;12.02;;;;;;;-4.52;67.19;99754.41;5035275;28;20122;-59
2024/02/21 03:31:43;;;;;;;19.63;11.38;;;;;;;-4.53;67.02;99756.16;5047844;28;20182;-61
2024/02/21 03:34:12;;;;;;;18.85;11.13;;;;;;;-4.59;66.81;99751.50;5033563;28;20128;-62
2024/02/21 03:36:38;;;;;;;16.02;10.50;;;;;;;-4.66;67.08;99747.81;5033442;28;20037;-60
2024/02/21 03:39:04;;;;;;;21.98;11.90;;;;;;;-4.69;67.55;99755.84;5033598;28;20090;-61
2024/02/21 03:41:29;;;;;;;21.33;11.88;;;;;;;-4.58;66.83;99743.63;5033281;28;20132;-63
2024/02/21 03:43:55;;;;;;;21.92;12.00;;;;;;;-4.50;67.32;99748.16;5033481;28;20130;-57
2024/02/21 03:46:21;;;;;;;19.55;11.02;;;;;;;-4.43;66.75;99746.69;5033351;28;20049;-62
2024/02/21 03:48:46;;;;;;;16.40;10.60;;;;;;;-4.47;66.91;99745.31;5033402;28;20344;-61
2024/02/21 03:51:12;;;;;;;19.45;10.82;;;;;;;-4.45;66.96;99747.75;5032960;28;20048;-59
2024/02/21 03:53:38;;;;;;;26.02;11.70;;;;;;;-4.44;67.22;99741.63;5033253;28;20045;-60
2024/02/21 03:56:04;;;;;;;18.55;10.85;;;;;;;-4.44;66.57;99749.38;5031200;28;20096;-61
2024/02/21 03:58:30;;;;;;;21.25;11.15;;;;;;;-4.46;66.48;99749.53;5032786;28;20069;-60
2024/02/21 04:00:56;;;;;;;19.27;11.82;;;;;;;-4.50;66.82;99749.91;5033005;28;20050;-61
2024/02/21 04:03:22;;;;;;;17.88;11.18;;;;;;;-4.47;66.73;99753.06;5033058;28;20045;-60
2024/02/21 04:05:48;;;;;;;19.35;11.60;;;;;;;-4.42;67.26;99743.13;5030955;28;20045;-61
2024/02/21 04:08:14;;;;;;;18.55;10.80;;;;;;;-4.44;67.21;99745.03;5032852;28;20100;-60
2024/02/21 04:10:39;;;;;;;18.67;11.25;;;;;;;-4.58;66.34;99743.63;5032475;28;20048;-62
2024/02/21 04:13:07;;;;;;;18.13;10.95;;;;;;;-4.56;66.81;99759.00;5027980;28;20045;-59
2024/02/21 04:15:32;;;;;;;21.27;11.73;;;;;;;-4.53;67.21;99745.81;5012595;28;20054;-60
2024/02/21 04:17:58;;;;;;;21.27;11.70;;;;;;;-4.48;66.80;99753.19;5027980;28;20083;-60
2024/02/21 04:20:23;;;;;;;19.50;11.30;;;;;;;-4.49;66.56;99752.38;5031122;28;20203;-59
2024/02/21 04:22:51;;;;;;;22.40;11.30;;;;;;;-4.55;67.08;99754.69;5031391;28;20116;-56
2024/02/21 04:25:17;;;;;;;25.13;11.60;;;;;;;-4.54;67.43;99756.31;5013915;28;20363;-61
2024/02/21 04:27:43;;;;;;;20.65;11.20;;;;;;;-4.52;67.62;99762.19;5032416;28;20124;-61
2024/02/21 04:30:09;;;;;;;19.20;11.55;;;;;;;-4.52;67.17;99755.22;5030924;28;20043;-59
2024/02/21 04:32:35;;;;;;;20.45;12.10;;;;;;;-4.55;67.05;99760.66;5031014;28;20037;-61
2024/02/21 04:35:01;;;;;;;19.98;11.50;;;;;;;-4.55;67.50;99758.09;5032457;28;20057;-58
2024/02/21 04:37:27;;;;;;;18.33;11.48;;;;;;;-4.52;67.89;99763.00;5032028;28;20045;-62
2024/02/21 04:39:52;;;;;;;17.85;11.07;;;;;;;-4.46;67.70;99756.47;5032123;28;20500;-62
2024/02/21 04:42:18;;;;;;;22.17;12.25;;;;;;;-4.43;67.53;99753.63;5032317;28;20068;-59
2024/02/21 04:44:44;;;;;;;20.83;12.00;;;;;;;-4.40;67.79;99750.78;5032233;28;20107;-59
2024/02/21 04:47:09;;;;;;;22.38;12.40;;;;;;;-4.35;67.25;99756.38;5032126;28;20049;-59
2024/02/21 04:49:35;;;;;;;21.13;12.50;;;;;;;-4.36;67.18;99749.53;5031932;28;20107;-61
2024/02/21 04:52:01;;;;;;;23.25;13.00;;;;;;;-4.36;67.23;99755.53;5014068;28;20037;-60
2024/02/21 04:54:26;;;;;;;22.02;12.27;;;;;;;-4.34;67.81;99742.47;5031913;28;20369;-62
2024/02/21 04:56:52;;;;;;;20.35;11.32;;;;;;;-4.30;67.30;99756.78;5031666;28;20037;-58
2024/02/21 04:59:18;;;;;;;22.77;12.25;;;;;;;-4.21;67.00;99753.38;5047247;28;20061;-59
2024/02/21 05:01:44;;;;;;;25.10;12.45;;;;;;;-4.20;67.22;99757.63;5031657;28;20656;-60
2024/02/21 05:04:09;;;;;;;21.58;12.35;;;;;;;-4.19;66.69;99759.25;5030422;28;20037;-58
2024/02/21 05:06:41;;;;;;;25.10;12.43;;;;;;;-4.16;66.61;99745.22;5028817;28;20551;-59
2024/02/21 05:09:08;;;;;;;19.35;12.02;;;;;;;-4.08;67.00;99758.34;5046447;28;20038;-59
2024/02/21 05:11:37;;;;;;;17.60;12.38;;;;;;;-4.10;66.61;99765.41;5030653;28;20135;-60
2024/02/21 05:14:03;;;;;;;22.67;13.82;;;;;;;-3.98;66.28;99759.16;5029989;28;20419;-60
2024/02/21 05:16:29;;;;;;;25.30;12.35;;;;;;;-4.01;65.94;99766.38;5031435;28;20060;-59
2024/02/21 05:18:56;;;;;;;26.20;13.45;;;;;;;-3.93;65.77;99759.56;5028236;28;20042;-62
2024/02/21 05:21:23;;;;;;;25.98;12.48;;;;;;;-3.96;66.18;99767.59;5030388;28;20067;-62
2024/02/21 05:23:49;;;;;;;25.02;13.98;;;;;;;-3.88;66.76;99762.59;5029255;28;20396;-59
2024/02/21 05:26:22;;;;;;;25.17;14.02;;;;;;;-3.89;66.43;99765.28;5031116;28;20067;-61
2024/02/21 05:28:49;;;;;;;23.10;12.88;;;;;;;-3.84;65.74;99757.94;5029963;28;20044;-61
2024/02/21 05:31:16;;;;;;;23.63;13.70;;;;;;;-3.73;66.50;99759.59;5044413;28;20452;-62
2024/02/21 05:33:43;;;;;;;20.85;12.15;;;;;;;-3.62;65.57;99762.03;5028836;28;20408;-61
2024/02/21 05:36:08;;;;;;;23.05;12.93;;;;;;;-3.70;65.43;99754.94;5028752;28;20060;-61
2024/02/21 05:38:35;;;;;;;22.08;13.60;;;;;;;-3.68;65.68;99752.22;5029148;28;20049;-61
2024/02/21 05:41:01;;;;;;;32.55;13.95;;;;;;;-3.76;65.86;99757.28;5032992;28;20042;-60
2024/02/21 05:43:26;;;;;;;24.42;13.43;;;;;;;-3.65;65.56;99757.13;5037704;28;20049;-61
2024/02/21 05:45:52;;;;;;;21.77;12.27;;;;;;;-3.58;65.45;99752.22;5036271;28;20052;-62
2024/02/21 05:48:18;;;;;;;23.25;12.25;;;;;;;-3.50;65.71;99753.16;5037848;28;20037;-60
2024/02/21 05:50:43;;;;;;;23.38;12.52;;;;;;;-3.38;65.14;99755.59;5037999;28;20045;-64
2024/02/21 05:53:10;;;;;;;24.35;13.90;;;;;;;-3.33;64.65;99754.22;5020089;28;20120;-59
2024/02/21 05:55:36;;;;;;;22.63;12.88;;;;;;;-3.27;65.02;99750.25;5036412;28;20054;-61
2024/02/21 05:58:02;;;;;;;22.02;12.15;;;;;;;-3.17;64.66;99752.84;5037648;28;20053;-62
2024/02/21 06:00:28;;;;;;;22.52;12.75;;;;;;;-3.18;64.42;99759.78;5032351;28;20125;-61
2024/02/21 06:02:54;;;;;;;23.65;12.57;;;;;;;-3.08;64.01;99755.41;5017566;28;20038;-60
2024/02/21 06:05:19;;;;;;;20.60;13.45;;;;;;;-3.14;63.92;99753.38;5017656;28;20502;-61
2024/02/21 06:07:45;;;;;;;22.08;13.38;;;;;;;-3.15;64.28;99756.09;5019070;28;20431;-62
2024/02/21 06:10:11;;;;;;;21.63;12.57;;;;;;;-3.03;64.36;99761.00;5016910;28;20041;-59
2024/02/21 06:12:37;;;;;;;24.83;13.25;;;;;;;-2.91;64.00;99758.22;5017224;28;20049;-58
2024/02/21 06:15:03;;;;;;;22.08;13.55;;;;;;;-2.84;63.85;99761.91;5017222;28;20069;-60
2024/02/21 06:17:29;;;;;;;23.05;13.18;;;;;;;-2.77;63.17;99753.38;5031716;28;20095;-60
2024/02/21 06:19:55;;;;;;;19.45;12.57;;;;;;;-2.76;63.64;99762.81;5017107;28;20531;-57
2024/02/21 06:22:21;;;;;;;21.38;12.85;;;;;;;-2.76;63.19;99760.22;5020181;28;20053;-59
2024/02/21 06:24:46;;;;;;;23.48;12.93;;;;;;;-2.78;63.03;99761.31;5036056;28;20068;-59
2024/02/21 06:27:12;;;;;;;24.13;13.05;;;;;;;-2.69;63.30;99760.47;5035276;28;20045;-56
2024/02/21 06:29:38;;;;;;;19.52;11.57;;;;;;;-2.49;63.07;99758.59;5037111;28;20076;-61
2024/02/21 06:32:04;;;;;;;19.92;12.18;;;;;;;-2.42;62.42;99756.25;5035785;28;20041;-59
2024/02/21 06:34:29;;;;;;;21.05;12.95;;;;;;;-2.28;62.38;99758.34;5037076;28;20157;-59
2024/02/21 06:36:55;;;;;;;23.67;13.38;;;;;;;-2.26;61.51;99755.59;5035742;28;20049;-59
2024/02/21 06:39:23;;;;;;;21.58;12.88;;;;;;;-2.06;62.15;99767.50;5037208;28;20045;-61
2024/02/21 06:41:50;;;;;;;29.33;13.52;;;;;;;-2.10;61.51;99750.59;5035777;28;20526;-57
2024/02/21 06:44:19;;;;;;;20.45;11.18;;;;;;;-2.13;60.84;99750.88;5035696;28;20057;-60
2024/02/21 06:46:45;;;;;;;21.15;12.95;;;;;;;-2.17;61.87;99755.56;5037066;28;20038;-62
2024/02/21 06:49:15;;;;;;;22.55;12.85;;;;;;;-2.13;61.87;99751.69;5017780;28;20061;-65
2024/02/21 06:51:44;;;;;;;;;;;;;;;-2.04;61.12;99755.19;5015812;28;20045;-59
2024/02/21 06:54:10;;;;;;;24.38;12.13;;;;;;;-2.01;61.41;99747.13;5014114;28;20413;-59
2024/02/21 06:56:36;;;;;;;19.50;11.18;;;;;;;-1.95;61.20;99753.50;5034185;28;20049;-62
2024/02/21 06:59:03;;;;;;;20.83;12.05;;;;;;;-1.96;60.92;99747.50;5016713;28;20058;-60
2024/02/21 07:01:29;;;;;;;23.45;13.00;;;;;;;-2.02;61.51;99750.69;5012734;28;20419;-60
2024/02/21 07:03:56;;;;;;;25.85;13.05;;;;;;;-1.91;61.22;99750.47;5011825;28;20037;-59
2024/02/21 07:06:22;;;;;;;20.35;12.40;;;;;;;-1.87;60.87;99743.19;5033676;28;20077;-61
2024/02/21 07:08:48;;;;;;;23.38;11.70;;;;;;;-1.76;60.40;99744.75;5032371;28;20049;-59
2024/02/21 07:11:13;;;;;;;21.52;12.60;;;;;;;-1.74;60.63;99746.22;5033495;28;20037;-60
2024/02/21 07:13:39;;;;;;;20.20;12.77;;;;;;;-1.71;60.51;99734.72;5033760;28;20047;-59
2024/02/21 07:16:06;;;;;;;22.08;13.23;;;;;;;-1.68;60.64;99747.41;5048857;28;20099;-62
2024/02/21 07:18:32;;;;;;;21.67;12.77;;;;;;;-1.69;60.17;99728.41;5019652;28;20518;-60
2024/02/21 07:20:58;;;;;;;19.50;12.73;;;;;;;-1.47;60.53;99747.94;5013899;28;20037;-61
2024/02/21 07:23:24;;;;;;;19.52;11.98;;;;;;;-1.46;59.57;99739.16;5023371;28;20129;-60
2024/02/21 07:25:50;;;;;;;20.83;12.00;;;;;;;-1.55;59.64;99744.44;5032108;28;20136;-60
2024/02/21 07:28:16;;;;;;;19.50;12.15;;;;;;;-1.51;59.78;99743.16;5033031;28;20046;-59
2024/02/21 07:30:42;;;;;;;25.65;13.85;;;;;;;-1.32;59.78;99740.41;5033410;28;20100;-60
2024/02/21 07:33:08;;;;;;;22.65;12.70;;;;;;;-1.19;59.72;99748.59;5033179;28;20045;-60
2024/02/21 07:35:34;;;;;;;24.77;12.60;;;;;;;-1.16;59.22;99742.28;5033297;28;20045;-60
2024/02/21 07:37:59;;;;;;;23.48;12.90;;;;;;;-1.28;59.39;99746.91;4998882;28;20056;-59
2024/02/21 07:40:25;;;;;;;23.23;12.63;;;;;;;-1.30;58.92;99737.63;5032428;28;20056;-57
2024/02/21 07:42:51;;;;;;;27.73;13.45;;;;;;;-1.37;59.54;99745.22;5033095;28;20498;-59
2024/02/21 07:45:18;;;;;;;21.33;12.93;;;;;;;-1.30;59.67;99743.63;5028257;28;20050;-58
2024/02/21 07:47:43;;;;;;;22.00;11.65;;;;;;;-1.24;59.16;99743.03;5021348;28;20034;-58
2024/02/21 07:50:09;;;;;;;23.88;12.63;;;;;;;-1.27;59.05;99737.31;5013321;28;20054;-59
2024/02/21 07:52:35;;;;;;;19.60;11.70;;;;;;;-1.22;58.83;99724.69;5015677;28;20029;-58
2024/02/21 07:55:01;;;;;;;21.23;12.32;;;;;;;-1.15;58.37;99721.34;5030864;28;20400;-59
2024/02/21 07:57:26;;;;;;;22.42;12.30;;;;;;;-1.10;58.34;99714.84;5029887;28;20076;-55
2024/02/21 07:59:52;;;;;;;22.63;13.43;;;;;;;-1.48;58.88;99704.69;5032487;28;20388;-60
2024/02/21 08:02:18;;;;;;;24.10;13.18;;;;;;;-1.65;59.72;99716.75;5032475;28;20475;-59
2024/02/21 08:04:43;;;;;;;24.02;13.10;;;;;;;-1.79;59.84;99714.69;5014241;28;20109;-59
2024/02/21 08:07:09;;;;;;;22.08;13.77;;;;;;;-1.87;60.04;99718.03;5032238;28;20041;-63
2024/02/21 08:09:37;;;;;;;22.75;12.70;;;;;;;-1.96;60.85;99715.50;5032937;28;20052;-64
2024/02/21 08:12:04;;;;;;;23.27;13.48;;;;;;;-2.01;61.52;99715.94;5026210;28;20120;-62
2024/02/21 08:14:30;;;;;;;21.10;12.55;;;;;;;-2.01;61.38;99720.31;5032513;28;20730;-59
2024/02/21 08:16:55;;;;;;;23.55;13.32;;;;;;;-2.04;61.26;99718.84;5030966;28;20049;-60
2024/02/21 08:19:22;;;;;;;24.58;12.55;;;;;;;-2.10;60.92;99715.03;5030738;28;20404;-60
2024/02/21 08:21:48;;;;;;;21.10;13.73;;;;;;;-2.11;61.50;99721.22;5031167;28;20569;-62
2024/02/21 08:24:14;;;;;;;22.17;13.13;;;;;;;-2.15;61.95;99714.66;5014259;28;20121;-60
2024/02/21 08:26:47;;;;;;;23.50;13.77;;;;;;;-2.13;61.57;99711.94;5025427;28;20038;-60
2024/02/21 08:29:12;;;;;;;21.27;12.93;;;;;;;-2.24;61.77;99718.13;5032110;28;20045;-61
2024/02/21 08:31:38;;;;;;;21.38;13.55;;;;;;;-2.22;62.52;99715.41;5017038;28;20420;-60
2024/02/21 08:34:04;;;;;;;21.33;12.68;;;;;;;-2.23;62.61;99713.78;5029029;28;20391;-60
2024/02/21 08:36:30;;;;;;;24.05;13.77;;;;;;;-2.10;62.09;99716.81;5032034;28;20057;-60
2024/02/21 08:38:56;;;;;;;21.95;13.02;;;;;;;-2.12;61.78;99719.59;5030476;28;20049;-62
2024/02/21 08:41:23;;;;;;;25.23;13.98;;;;;;;-2.17;61.74;99714.00;5030483;28;20415;-60
2024/02/21 08:43:51;;;;;;;23.48;13.73;;;;;;;-2.07;62.06;99717.34;5030353;28;20194;-59
2024/02/21 08:46:17;;;;;;;22.85;13.30;;;;;;;-2.04;61.98;99712.81;5031226;28;20080;-60
2024/02/21 08:48:44;;;;;;;22.17;13.23;;;;;;;-2.10;61.66;99707.25;5030407;28;20096;-61
2024/02/21 08:51:09;;;;;;;22.02;12.95;;;;;;;-2.11;62.49;99712.59;5030517;28;20056;-60
2024/02/21 08:53:35;;;;;;;22.38;12.50;;;;;;;-2.10;61.48;99709.03;5054249;28;20041;-61
2024/02/21 08:56:01;;;;;;;22.75;12.50;;;;;;;-2.01;61.83;99704.72;5019248;28;20046;-63
2024/02/21 08:58:26;;;;;;;23.13;13.20;;;;;;;-2.06;61.24;99706.00;5024978;28;20050;-60
2024/02/21 09:00:52;;;;;;;29.15;13.75;;;;;;;-2.08;61.56;99707.13;5021034;28;20072;-58
2024/02/21 09:03:19;;;;;;;22.70;12.73;;;;;;;-2.17;62.03;99708.00;5024623;28;20034;-59
2024/02/21 09:05:46;;;;;;;30.27;13.50;;;;;;;-2.12;61.97;99704.00;5024860;28;20037;-61
2024/02/21 09:08:12;;;;;;;20.13;12.60;;;;;;;-1.88;61.74;99710.38;5031449;28;20045;-60
2024/02/21 09:10:39;;;;;;;27.50;14.60;;;;;;;-1.76;61.46;99706.59;5031551;28;20400;-60
2024/02/21 09:13:35;;;;;;;27.08;14.20;;;;;;;-1.84;61.17;99696.13;5031237;28;20072;-56
2024/02/21 09:16:24;;;;;;;22.33;13.15;;;;;;;-1.73;61.24;99697.69;5039566;28;20033;-56
2024/02/21 09:18:50;;;;;;;24.35;14.07;;;;;;;-1.60;60.83;99698.09;5029544;28;20060;-59
2024/02/21 09:21:16;;;;;;;24.58;13.40;;;;;;;-1.58;60.61;99703.16;5031591;28;20053;-58
2024/02/21 09:23:41;;;;;;;25.10;14.40;;;;;;;-1.62;60.83;99705.22;5012207;28;20499;-56
2024/02/21 09:26:10;;;;;;;25.92;14.55;;;;;;;-1.61;61.10;99696.47;5017935;28;20048;-60
2024/02/21 09:28:35;;;;;;;22.55;12.93;;;;;;;-1.48;60.52;99709.06;5046055;28;20472;-58
2024/02/21 09:31:01;;;;;;;22.90;13.57;;;;;;;-1.34;60.43;99686.91;5031472;28;20048;-61
2024/02/21 09:33:27;;;;;;;23.27;14.35;;;;;;;-1.25;60.29;99692.00;5031301;28;20056;-60
2024/02/21 09:35:53;;;;;;;24.88;14.55;;;;;;;-1.11;59.73;99687.19;5029750;28;20049;-59
2024/02/21 09:38:18;;;;;;;27.33;14.25;;;;;;;-1.08;59.50;99689.50;5029577;28;20038;-59
2024/02/21 09:40:44;;;;;;;24.80;13.88;;;;;;;-1.04;59.62;99685.59;5030932;28;20083;-58
2024/02/21 09:43:10;;;;;;;20.10;12.25;;;;;;;-0.93;59.21;99677.53;5021978;28;20084;-61
2024/02/21 09:45:37;;;;;;;24.48;14.65;;;;;;;-0.88;58.91;99669.22;5026786;28;20080;-62
2024/02/21 09:48:19;;;;;;;21.77;13.27;;;;;;;-0.79;58.46;99676.94;5047589;28;20132;-62
2024/02/21 09:50:46;;;;;;;29.23;14.18;;;;;;;-0.64;58.19;99674.56;5030628;28;20057;-61
2024/02/21 09:53:13;;;;;;;26.95;14.40;;;;;;;-0.48;58.46;99684.19;5029429;28;20493;-61
2024/02/21 09:55:41;;;;;;;24.48;13.02;;;;;;;-0.52;58.16;99683.69;5013202;28;20046;-59
2024/02/21 09:58:08;;;;;;;21.83;13.07;;;;;;;-0.54;57.83;99677.81;5029081;28;20061;-60
2024/02/21 10:00:35;;;;;;;25.00;13.20;;;;;;;-0.49;57.95;99677.34;5028718;28;20503;-62
2024/02/21 10:03:02;;;;;;;22.35;13.02;;;;;;;-0.50;57.57;99684.38;5030422;28;20076;-60
2024/02/21 10:05:28;;;;;;;23.85;12.95;;;;;;;-0.70;58.13;99681.19;5018963;28;20046;-60
2024/02/21 10:07:55;;;;;;;25.10;13.35;;;;;;;-0.59;58.25;99676.66;5022617;28;20041;-58
2024/02/21 10:10:21;;;;;;;24.63;13.55;;;;;;;-0.52;58.13;99670.69;5021392;28;20470;-62
2024/02/21 10:12:51;;;;;;;24.13;13.10;;;;;;;-0.47;57.56;99670.22;5028706;28;20063;-63
2024/02/21 10:15:23;;;;;;;23.75;14.10;;;;;;;-0.28;57.63;99672.50;5016453;28;20056;-61
2024/02/21 10:18:00;;;;;;;21.00;12.82;;;;;;;-0.22;56.53;99668.47;5021349;28;20041;-59
2024/02/21 10:20:26;;;;;;;23.58;12.55;;;;;;;-0.18;56.98;99663.72;5030411;28;20099;-57
2024/02/21 10:23:03;;;;;;;20.48;11.55;;;;;;;-0.26;56.23;99669.75;4954597;28;20037;-62
2024/02/21 10:25:30;;;;;;;20.42;12.90;;;;;;;-0.08;56.87;99659.19;5010742;28;20056;-61
2024/02/21 10:27:57;;;;;;;24.15;12.70;;;;;;;-0.16;56.47;99653.97;5024440;28;20037;-62
2024/02/21 10:30:22;;;;;;;22.25;13.30;;;;;;;-0.20;56.78;99655.28;5014972;28;20100;-59
2024/02/21 10:32:57;;;;;;;19.48;12.32;;;;;;;-0.12;57.06;99669.13;5024375;28;20507;-61
2024/02/21 10:35:33;;;;;;;21.83;12.48;;;;;;;-0.21;56.58;99658.84;5033039;28;20561;-60
2024/02/21 10:37:59;;;;;;;24.15;12.30;;;;;;;-0.13;56.61;99659.66;5033875;28;20072;-61
2024/02/21 10:40:32;;;;;;;21.60;12.25;;;;;;;-0.13;56.36;99664.06;5034235;28;20049;-58
2024/02/21 10:43:03;;;;;;;25.92;13.10;;;;;;;-0.17;56.42;99657.56;5015778;28;20041;-59
2024/02/21 10:45:34;;;;;;;28.23;13.00;;;;;;;-0.08;56.97;99667.81;5034284;28;20063;-59
2024/02/21 10:48:14;;;;;;;21.52;12.60;;;;;;;0.00;56.66;99667.03;5032305;28;20045;-59
2024/02/21 10:51:14;;;;;;;24.17;12.73;;;;;;;-0.08;55.84;99672.22;5032685;28;20568;-58
2024/02/21 10:54:07;;;;;;;23.20;12.13;;;;;;;-0.29;56.29;99668.28;5024846;28;20045;-59
2024/02/21 10:56:37;;;;;;;28.00;13.23;;;;;;;-0.28;56.81;99656.88;5025014;28;20050;-58
2024/02/21 10:59:05;;;;;;;20.30;12.05;;;;;;;-0.20;56.53;99660.50;4999729;28;20052;-58
2024/02/21 11:01:31;;;;;;;21.67;12.77;;;;;;;-0.06;56.17;99665.03;4999349;28;20041;-62
2024/02/21 11:04:01;;;;;;;21.88;12.55;;;;;;;-0.11;56.21;99656.91;5024553;28;20066;-59
2024/02/21 11:06:28;;;;;;;24.20;12.60;;;;;;;-0.08;56.30;99660.00;5024742;28;20124;-61
2024/02/21 11:09:08;;;;;;;23.08;12.35;;;;;;;-0.14;56.17;99646.81;5012298;28;20813;-60
2024/02/21 11:11:44;;;;;;;20.07;12.53;;;;;;;-0.14;56.14;99641.59;5038174;28;20085;-62
2024/02/21 11:14:11;;;;;;;22.42;12.13;;;;;;;-0.11;56.10;99652.50;5032304;28;20394;-61
2024/02/21 11:16:39;;;;;;;22.17;11.57;;;;;;;-0.32;56.15;99646.97;5033711;28;20137;-60